sensor_id;sensor_type;location;lat;lon;timestamp;pressure;altitude;pressure_sealevel;temperature;humidity
45789;BME280;31492;54.856;26.318;2022-08-05T00:03:40;1004.3;;;16.9;100
45789;BME280;31492;54.856;26.318;2022-08-05T00:08:40;1004.3;;;16.9;100
45789;BME280;31492;54.856;26.318;2022-08-05T00:13:42;1004.3;;;16.9;100
45789;BME280;31492;54.856;26.318;2022-08-05T00:18:42;1004.3;;;16.9;100
45789;BME280;31492;54.856;26.318;2022-08-05T00:23:41;1004.3;;;16.9;100
45789;BME280;31492;54.856;26.318;2022-08-05T00:28:40;1004.3;;;16.9;100
45789;BME280;31492;54.856;26.318;2022-08-05T00:33:40;1004.3;;;16.9;100
45789;BME280;31492;54.856;26.318;2022-08-05T00:38:40;1004.3;;;16.9;100
45789;BME280;31492;54.856;26.318;2022-08-05T00:43:40;1004.3;;;16.9;100
45789;BME280;31492;54.856;26.318;2022-08-05T00:48:40;1004.3;;;16.9;100
45789;BME280;31492;54.856;26.318;2022-08-05T00:53:40;1004.3;;;16.9;100
45789;BME280;31492;54.856;26.318;2022-08-05T00:58:40;1004.3;;;16.9;100
45789;BME280;31492;54.856;26.318;2022-08-05T01:03:40;1004.3;;;16.9;100
45789;BME280;31492;54.856;26.318;2022-08-05T01:08:40;1004.3;;;16.9;100
45789;BME280;31492;54.856;26.318;2022-08-05T01:13:46;1004.3;;;16.9;100
45789;BME280;31492;54.856;26.318;2022-08-05T01:18:42;1004.3;;;16.9;100
45789;BME280;31492;54.856;26.318;2022-08-05T01:28:42;1004.3;;;16.9;100
45789;BME280;31492;54.856;26.318;2022-08-05T01:33:44;1004.3;;;16.9;100
45789;BME280;31492;54.856;26.318;2022-08-05T01:38:40;1004.3;;;16.9;100
45789;BME280;31492;54.856;26.318;2022-08-05T01:43:40;1004.3;;;16.9;100
45789;BME280;31492;54.856;26.318;2022-08-05T01:48:40;1004.3;;;16.9;100
45789;BME280;31492;54.856;26.318;2022-08-05T01:53:40;1004.3;;;16.9;100
45789;BME280;31492;54.856;26.318;2022-08-05T01:58:40;1004.3;;;16.9;100
45789;BME280;31492;54.856;26.318;2022-08-05T02:03:42;1004.3;;;16.9;100
45789;BME280;31492;54.856;26.318;2022-08-05T02:08:40;1003.7;;;15.2;100
45789;BME280;31492;54.856;26.318;2022-08-05T02:14:13;1003.7;;;15.2;100
45789;BME280;31492;54.856;26.318;2022-08-05T02:18:43;1003.7;;;15.2;100
45789;BME280;31492;54.856;26.318;2022-08-05T02:23:41;1003.6;;;15.2;100
45789;BME280;31492;54.856;26.318;2022-08-05T02:28:41;1003.6;;;15.3;100
45789;BME280;31492;54.856;26.318;2022-08-05T02:33:50;1003.6;;;15.3;100
45789;BME280;31492;54.856;26.318;2022-08-05T02:38:40;1003.5;;;15.2;100
45789;BME280;31492;54.856;26.318;2022-08-05T02:43:40;1003.5;;;15.2;100
45789;BME280;31492;54.856;26.318;2022-08-05T02:48:40;1003.5;;;15.2;100
45789;BME280;31492;54.856;26.318;2022-08-05T02:53:40;1003.5;;;15.1;100
45789;BME280;31492;54.856;26.318;2022-08-05T02:58:40;1003.5;;;15.1;100
45789;BME280;31492;54.856;26.318;2022-08-05T03:03:40;1003.5;;;15.1;100
45789;BME280;31492;54.856;26.318;2022-08-05T03:08:40;1003.5;;;15.1;100
45789;BME280;31492;54.856;26.318;2022-08-05T03:13:40;1003.5;;;15.1;100
45789;BME280;31492;54.856;26.318;2022-08-05T03:18:40;1003.5;;;15.2;100
45789;BME280;31492;54.856;26.318;2022-08-05T03:23:41;1003.5;;;15.2;100
45789;BME280;31492;54.856;26.318;2022-08-05T03:28:40;1003.6;;;15.3;100
45789;BME280;31492;54.856;26.318;2022-08-05T03:33:40;1003.6;;;15.3;100
45789;BME280;31492;54.856;26.318;2022-08-05T03:38:40;1003.6;;;15.4;100
45789;BME280;31492;54.856;26.318;2022-08-05T03:43:40;1003.6;;;15.4;100
45789;BME280;31492;54.856;26.318;2022-08-05T03:48:40;1003.6;;;15.5;100
45789;BME280;31492;54.856;26.318;2022-08-05T03:53:42;1003.6;;;15.4;100
45789;BME280;31492;54.856;26.318;2022-08-05T03:58:41;1003.6;;;15.5;100
45789;BME280;31492;54.856;26.318;2022-08-05T04:03:40;1003.6;;;15.6;100
45789;BME280;31492;54.856;26.318;2022-08-05T04:08:40;1003.6;;;15.6;100
45789;BME280;31492;54.856;26.318;2022-08-05T04:13:40;1003.7;;;15.6;100
45789;BME280;31492;54.856;26.318;2022-08-05T04:18:40;1003.7;;;15.7;100
45789;BME280;31492;54.856;26.318;2022-08-05T04:23:40;1003.7;;;15.6;100
45789;BME280;31492;54.856;26.318;2022-08-05T04:28:40;1003.7;;;15.7;100
45789;BME280;31492;54.856;26.318;2022-08-05T04:33:40;1003.7;;;15.8;100
45789;BME280;31492;54.856;26.318;2022-08-05T04:38:42;1003.7;;;16;100
45789;BME280;31492;54.856;26.318;2022-08-05T04:43:40;1003.7;;;16.1;100
45789;BME280;31492;54.856;26.318;2022-08-05T04:48:40;1003.7;;;16.2;100
45789;BME280;31492;54.856;26.318;2022-08-05T04:53:40;1003.7;;;16.2;100
45789;BME280;31492;54.856;26.318;2022-08-05T04:58:40;1003.7;;;16.3;100
45789;BME280;31492;54.856;26.318;2022-08-05T05:03:40;1003.7;;;16.6;100
45789;BME280;31492;54.856;26.318;2022-08-05T05:08:40;1003.6;;;16.9;100
45789;BME280;31492;54.856;26.318;2022-08-05T05:13:40;1003.6;;;17.1;100
45789;BME280;31492;54.856;26.318;2022-08-05T05:18:40;1003.6;;;17.3;100
45789;BME280;31492;54.856;26.318;2022-08-05T05:23:40;1003.6;;;17.6;100
45789;BME280;31492;54.856;26.318;2022-08-05T05:28:40;1003.6;;;17.8;100
45789;BME280;31492;54.856;26.318;2022-08-05T05:33:40;1003.6;;;17.9;100
45789;BME280;31492;54.856;26.318;2022-08-05T05:38:40;1003.6;;;18.2;100
45789;BME280;31492;54.856;26.318;2022-08-05T05:43:40;1003.6;;;18.5;100
45789;BME280;31492;54.856;26.318;2022-08-05T05:48:40;1003.6;;;18.7;100
45789;BME280;31492;54.856;26.318;2022-08-05T05:53:40;1003.6;;;19;100
45789;BME280;31492;54.856;26.318;2022-08-05T05:58:40;1003.5;;;19.4;100
45789;BME280;31492;54.856;26.318;2022-08-05T06:03:40;1003.5;;;19.9;100
45789;BME280;31492;54.856;26.318;2022-08-05T06:08:40;1003.5;;;20.3;100
45789;BME280;31492;54.856;26.318;2022-08-05T06:13:40;1003.5;;;20.7;100
45789;BME280;31492;54.856;26.318;2022-08-05T06:18:40;1003.4;;;21;100
45789;BME280;31492;54.856;26.318;2022-08-05T06:23:40;1003.4;;;21.2;100
45789;BME280;31492;54.856;26.318;2022-08-05T06:28:40;1003.3;;;21.9;100
45789;BME280;31492;54.856;26.318;2022-08-05T06:33:40;1003.4;;;22.4;100
45789;BME280;31492;54.856;26.318;2022-08-05T06:38:40;1003.4;;;22.8;100
45789;BME280;31492;54.856;26.318;2022-08-05T06:43:40;1003.4;;;23.2;100
45789;BME280;31492;54.856;26.318;2022-08-05T06:48:40;1003.3;;;23.6;100
45789;BME280;31492;54.856;26.318;2022-08-05T06:53:40;1003.3;;;24.1;100
45789;BME280;31492;54.856;26.318;2022-08-05T06:58:40;1003.3;;;24.9;100
45789;BME280;31492;54.856;26.318;2022-08-05T07:03:40;1003.3;;;25.9;100
45789;BME280;31492;54.856;26.318;2022-08-05T07:08:41;1003.2;;;27.1;100
45789;BME280;31492;54.856;26.318;2022-08-05T07:13:40;1003.2;;;28.2;100
45789;BME280;31492;54.856;26.318;2022-08-05T07:18:40;1003.2;;;28.9;100
45789;BME280;31492;54.856;26.318;2022-08-05T07:23:40;1003.1;;;29.5;100
45789;BME280;31492;54.856;26.318;2022-08-05T07:28:40;1003.1;;;30.2;100
45789;BME280;31492;54.856;26.318;2022-08-05T07:33:40;1003.1;;;30.6;100
45789;BME280;31492;54.856;26.318;2022-08-05T07:38:40;1003.1;;;31.1;100
45789;BME280;31492;54.856;26.318;2022-08-05T07:43:40;1003.1;;;31.9;100
45789;BME280;31492;54.856;26.318;2022-08-05T07:48:40;1003;;;32.4;100
45789;BME280;31492;54.856;26.318;2022-08-05T07:53:41;1003;;;32.8;100
45789;BME280;31492;54.856;26.318;2022-08-05T07:58:40;1003.1;;;33.3;77.4
45789;BME280;31492;54.856;26.318;2022-08-05T08:03:40;1003.1;;;33.5;77.5
45789;BME280;31492;54.856;26.318;2022-08-05T08:08:40;1003;;;34.2;78.5
45789;BME280;31492;54.856;26.318;2022-08-05T08:13:40;1003;;;35;73.5
45789;BME280;31492;54.856;26.318;2022-08-05T08:18:40;1003;;;35.3;53.6
45789;BME280;31492;54.856;26.318;2022-08-05T08:23:40;1003;;;35.4;51.3
45789;BME280;31492;54.856;26.318;2022-08-05T08:28:40;1002.9;;;35.7;52.1
45789;BME280;31492;54.856;26.318;2022-08-05T08:33:40;1002.9;;;36.2;53.4
45789;BME280;31492;54.856;26.318;2022-08-05T08:38:40;1002.9;;;36.8;43.2
45789;BME280;31492;54.856;26.318;2022-08-05T08:43:40;1002.9;;;37.4;44.5
45789;BME280;31492;54.856;26.318;2022-08-05T08:48:40;1002.9;;;37.5;41.9
45789;BME280;31492;54.856;26.318;2022-08-05T08:53:40;1002.9;;;37.5;44.5
45789;BME280;31492;54.856;26.318;2022-08-05T08:58:40;1002.8;;;37.7;45
45789;BME280;31492;54.856;26.318;2022-08-05T09:03:40;1002.9;;;37.5;38.6
45789;BME280;31492;54.856;26.318;2022-08-05T09:08:40;1002.8;;;37.8;37.2
45789;BME280;31492;54.856;26.318;2022-08-05T09:13:40;1002.8;;;37.4;33.8
45789;BME280;31492;54.856;26.318;2022-08-05T09:18:40;1002.8;;;37.2;37.1
45789;BME280;31492;54.856;26.318;2022-08-05T09:23:40;1002.8;;;37.1;37.3
45789;BME280;31492;54.856;26.318;2022-08-05T09:28:40;1002.7;;;37.5;37.9
45789;BME280;31492;54.856;26.318;2022-08-05T09:33:48;1002.6;;;37.8;37.8
45789;BME280;31492;54.856;26.318;2022-08-05T09:38:56;1002.6;;;37.8;38.4
45789;BME280;31492;54.856;26.318;2022-08-05T09:43:40;1002.6;;;38.1;37.6
45789;BME280;31492;54.856;26.318;2022-08-05T09:48:40;1002.6;;;38;35.1
45789;BME280;31492;54.856;26.318;2022-08-05T09:53:48;1002.5;;;38;34.8
45789;BME280;31492;54.856;26.318;2022-08-05T09:58:40;1002.5;;;37.9;33.1
45789;BME280;31492;54.856;26.318;2022-08-05T10:03:40;1002.5;;;37.4;33.9
45789;BME280;31492;54.856;26.318;2022-08-05T10:08:40;1002.5;;;37;37.2
45789;BME280;31492;54.856;26.318;2022-08-05T10:13:40;1002.5;;;37.4;36
45789;BME280;31492;54.856;26.318;2022-08-05T10:18:40;1002.4;;;37.7;37.4
45789;BME280;31492;54.856;26.318;2022-08-05T10:23:41;1002.3;;;37.9;36.7
45789;BME280;31492;54.856;26.318;2022-08-05T10:28:41;1002.4;;;37.9;35.1
45789;BME280;31492;54.856;26.318;2022-08-05T10:33:40;1002.3;;;38;35.8
45789;BME280;31492;54.856;26.318;2022-08-05T10:38:41;1002.2;;;38.2;39.3
45789;BME280;31492;54.856;26.318;2022-08-05T10:43:45;1002.2;;;38.3;36.5
45789;BME280;31492;54.856;26.318;2022-08-05T10:48:42;1002.1;;;38.8;34.8
45789;BME280;31492;54.856;26.318;2022-08-05T10:53:42;1002.1;;;38.9;35
45789;BME280;31492;54.856;26.318;2022-08-05T10:59:16;1002.1;;;38.8;35.2
45789;BME280;31492;54.856;26.318;2022-08-05T11:04:46;1002;;;38.8;33.6
45789;BME280;31492;54.856;26.318;2022-08-05T11:09:08;1002;;;38.6;35.2
45789;BME280;31492;54.856;26.318;2022-08-05T11:13:41;1002;;;38.7;33.1
45789;BME280;31492;54.856;26.318;2022-08-05T11:18:40;1002;;;38.8;33
45789;BME280;31492;54.856;26.318;2022-08-05T11:23:41;1002;;;38.9;33.4
45789;BME280;31492;54.856;26.318;2022-08-05T11:28:41;1001.9;;;39;33.7
45789;BME280;31492;54.856;26.318;2022-08-05T11:33:55;1001.8;;;39;33.2
45789;BME280;31492;54.856;26.318;2022-08-05T11:38:50;1001.8;;;39;32.1
45789;BME280;31492;54.856;26.318;2022-08-05T11:43:42;1001.8;;;38.9;33
45789;BME280;31492;54.856;26.318;2022-08-05T11:48:40;1001.8;;;38.7;33.2
45789;BME280;31492;54.856;26.318;2022-08-05T11:53:40;1001.7;;;38.8;32.6
45789;BME280;31492;54.856;26.318;2022-08-05T11:58:41;1001.7;;;38.5;31.3
45789;BME280;31492;54.856;26.318;2022-08-05T12:03:43;1001.7;;;38;33.5
45789;BME280;31492;54.856;26.318;2022-08-05T12:08:42;1001.7;;;37.9;32.7
45789;BME280;31492;54.856;26.318;2022-08-05T12:13:40;1001.7;;;38.4;33.8
45789;BME280;31492;54.856;26.318;2022-08-05T12:18:40;1001.6;;;38.3;34.6
45789;BME280;31492;54.856;26.318;2022-08-05T12:24:13;1001.6;;;38.4;33
45789;BME280;31492;54.856;26.318;2022-08-05T12:28:40;1001.5;;;38.4;33.7
45789;BME280;31492;54.856;26.318;2022-08-05T12:33:40;1001.5;;;38.4;34.1
45789;BME280;31492;54.856;26.318;2022-08-05T12:38:40;1001.5;;;37.8;37.1
45789;BME280;31492;54.856;26.318;2022-08-05T12:43:48;1001.5;;;37.9;36.8
45789;BME280;31492;54.856;26.318;2022-08-05T12:48:41;1001.5;;;37.9;34.4
45789;BME280;31492;54.856;26.318;2022-08-05T12:53:42;1001.5;;;37;36
45789;BME280;31492;54.856;26.318;2022-08-05T12:58:40;1001.4;;;37.2;36.5
45789;BME280;31492;54.856;26.318;2022-08-05T13:03:40;1001.3;;;37.5;37.8
45789;BME280;31492;54.856;26.318;2022-08-05T13:08:40;1001.3;;;37.3;38.3
45789;BME280;31492;54.856;26.318;2022-08-05T13:13:40;1001.3;;;37.3;35.2
45789;BME280;31492;54.856;26.318;2022-08-05T13:18:49;1001.3;;;37.4;36.7
45789;BME280;31492;54.856;26.318;2022-08-05T13:23:40;1001.2;;;37.2;37.4
45789;BME280;31492;54.856;26.318;2022-08-05T13:28:40;1001.2;;;37.2;37.5
45789;BME280;31492;54.856;26.318;2022-08-05T13:33:40;1001.1;;;36.8;38.4
45789;BME280;31492;54.856;26.318;2022-08-05T13:38:40;1001.2;;;36.4;38.9
45789;BME280;31492;54.856;26.318;2022-08-05T13:43:40;1001.2;;;35.9;38.1
45789;BME280;31492;54.856;26.318;2022-08-05T13:48:40;1001.2;;;35.4;39.9
45789;BME280;31492;54.856;26.318;2022-08-05T13:53:41;1001.2;;;34.9;40.6
45789;BME280;31492;54.856;26.318;2022-08-05T13:58:40;1001.2;;;34.1;42.6
45789;BME280;31492;54.856;26.318;2022-08-05T14:03:40;1001.1;;;33.6;47.5
45789;BME280;31492;54.856;26.318;2022-08-05T14:08:40;1001.1;;;33.2;49.6
45789;BME280;31492;54.856;26.318;2022-08-05T14:13:40;1001;;;33.1;50.5
45789;BME280;31492;54.856;26.318;2022-08-05T14:18:40;1001;;;32.7;55.7
45789;BME280;31492;54.856;26.318;2022-08-05T14:23:40;1001;;;32.3;64.8
45789;BME280;31492;54.856;26.318;2022-08-05T14:28:40;1001.1;;;31.9;68.9
45789;BME280;31492;54.856;26.318;2022-08-05T14:33:40;1001;;;31.5;85
45789;BME280;31492;54.856;26.318;2022-08-05T14:38:40;1000.9;;;31.2;91.4
45789;BME280;31492;54.856;26.318;2022-08-05T14:43:40;1000.8;;;31;89.2
45789;BME280;31492;54.856;26.318;2022-08-05T14:48:40;1000.8;;;30.8;92.1
45789;BME280;31492;54.856;26.318;2022-08-05T14:53:40;1000.7;;;30.6;97.7
45789;BME280;31492;54.856;26.318;2022-08-05T14:58:40;1000.7;;;30.5;95.4
45789;BME280;31492;54.856;26.318;2022-08-05T15:03:40;1000.7;;;30.2;99.7
45789;BME280;31492;54.856;26.318;2022-08-05T15:08:40;1000.7;;;30;99.3
45789;BME280;31492;54.856;26.318;2022-08-05T15:13:40;1000.7;;;29.7;100
45789;BME280;31492;54.856;26.318;2022-08-05T15:18:40;1000.6;;;29.8;95.3
45789;BME280;31492;54.856;26.318;2022-08-05T15:23:40;1000.6;;;29.5;100
45789;BME280;31492;54.856;26.318;2022-08-05T15:28:40;1000.5;;;29.4;100
45789;BME280;31492;54.856;26.318;2022-08-05T15:33:40;1000.4;;;29.3;100
45789;BME280;31492;54.856;26.318;2022-08-05T15:38:40;1000.4;;;29.2;100
45789;BME280;31492;54.856;26.318;2022-08-05T15:43:40;1000.4;;;29.1;100
45789;BME280;31492;54.856;26.318;2022-08-05T15:48:40;1000.3;;;28.9;100
45789;BME280;31492;54.856;26.318;2022-08-05T15:53:40;1000.3;;;28.7;100
45789;BME280;31492;54.856;26.318;2022-08-05T15:58:40;1000.3;;;28.5;100
45789;BME280;31492;54.856;26.318;2022-08-05T16:03:40;1000.3;;;28.3;100
45789;BME280;31492;54.856;26.318;2022-08-05T16:08:40;1000.3;;;28;100
45789;BME280;31492;54.856;26.318;2022-08-05T16:13:40;1000.4;;;27.9;100
45789;BME280;31492;54.856;26.318;2022-08-05T16:18:40;1000.4;;;27.8;100
45789;BME280;31492;54.856;26.318;2022-08-05T16:23:40;1000.4;;;27.7;100
45789;BME280;31492;54.856;26.318;2022-08-05T16:28:40;1000.4;;;27.6;100
45789;BME280;31492;54.856;26.318;2022-08-05T16:33:40;1000.4;;;27.5;100
45789;BME280;31492;54.856;26.318;2022-08-05T16:38:40;1000.4;;;27.4;100
45789;BME280;31492;54.856;26.318;2022-08-05T16:43:40;1000.5;;;27.3;100
45789;BME280;31492;54.856;26.318;2022-08-05T16:48:40;1000.5;;;27.1;100
45789;BME280;31492;54.856;26.318;2022-08-05T16:53:41;1000.5;;;27;100
45789;BME280;31492;54.856;26.318;2022-08-05T16:58:40;1000.4;;;26.8;100
45789;BME280;31492;54.856;26.318;2022-08-05T17:03:40;1000.3;;;26.7;100
45789;BME280;31492;54.856;26.318;2022-08-05T17:08:40;1000.3;;;26.6;100
45789;BME280;31492;54.856;26.318;2022-08-05T17:13:40;1000.3;;;26.4;100
45789;BME280;31492;54.856;26.318;2022-08-05T17:18:40;1000.4;;;26.3;100
45789;BME280;31492;54.856;26.318;2022-08-05T17:23:40;1000.4;;;26.2;100
45789;BME280;31492;54.856;26.318;2022-08-05T17:28:40;1000.4;;;26;100
45789;BME280;31492;54.856;26.318;2022-08-05T17:33:40;1000.4;;;25.8;100
45789;BME280;31492;54.856;26.318;2022-08-05T17:38:40;1000.4;;;25.6;100
45789;BME280;31492;54.856;26.318;2022-08-05T17:43:40;1000.4;;;25.5;100
45789;BME280;31492;54.856;26.318;2022-08-05T17:48:40;1000.4;;;25.3;100
45789;BME280;31492;54.856;26.318;2022-08-05T17:53:40;1000.4;;;25.1;100
45789;BME280;31492;54.856;26.318;2022-08-05T17:58:40;1000.4;;;25.1;100
45789;BME280;31492;54.856;26.318;2022-08-05T18:03:40;1000.5;;;25;100
45789;BME280;31492;54.856;26.318;2022-08-05T18:08:41;1000.5;;;24.9;100
45789;BME280;31492;54.856;26.318;2022-08-05T18:13:41;1000.4;;;24.7;100
45789;BME280;31492;54.856;26.318;2022-08-05T18:18:40;1000.5;;;24.6;100
45789;BME280;31492;54.856;26.318;2022-08-05T18:23:40;1000.5;;;24.5;100
45789;BME280;31492;54.856;26.318;2022-08-05T18:28:40;1000.5;;;24.3;100
45789;BME280;31492;54.856;26.318;2022-08-05T18:33:40;1000.5;;;24.2;100
45789;BME280;31492;54.856;26.318;2022-08-05T18:38:40;1000.6;;;24;100
45789;BME280;31492;54.856;26.318;2022-08-05T18:43:40;1000.6;;;23.9;100
45789;BME280;31492;54.856;26.318;2022-08-05T18:48:40;1000.6;;;23.6;100
45789;BME280;31492;54.856;26.318;2022-08-05T18:53:40;1000.6;;;23.4;100
45789;BME280;31492;54.856;26.318;2022-08-05T18:58:40;1000.6;;;23.5;100
45789;BME280;31492;54.856;26.318;2022-08-05T19:03:40;1000.7;;;23.4;100
45789;BME280;31492;54.856;26.318;2022-08-05T19:08:40;1000.6;;;23.4;100
45789;BME280;31492;54.856;26.318;2022-08-05T19:13:40;1000.6;;;23.3;100
45789;BME280;31492;54.856;26.318;2022-08-05T19:18:40;1000.6;;;23.2;100
45789;BME280;31492;54.856;26.318;2022-08-05T19:23:40;1000.6;;;23.1;100
45789;BME280;31492;54.856;26.318;2022-08-05T19:28:40;1000.6;;;23.1;100
45789;BME280;31492;54.856;26.318;2022-08-05T19:33:40;1000.5;;;23;100
45789;BME280;31492;54.856;26.318;2022-08-05T19:38:40;1000.5;;;22.9;100
45789;BME280;31492;54.856;26.318;2022-08-05T19:43:40;1000.5;;;22.8;100
45789;BME280;31492;54.856;26.318;2022-08-05T19:48:40;1000.5;;;22.8;100
45789;BME280;31492;54.856;26.318;2022-08-05T19:53:40;1000.5;;;22.7;100
45789;BME280;31492;54.856;26.318;2022-08-05T19:58:40;1000.5;;;22.7;100
45789;BME280;31492;54.856;26.318;2022-08-05T20:03:40;1000.5;;;22.6;100
45789;BME280;31492;54.856;26.318;2022-08-05T20:08:40;1000.5;;;22.6;100
45789;BME280;31492;54.856;26.318;2022-08-05T20:13:40;1000.5;;;22.4;100
45789;BME280;31492;54.856;26.318;2022-08-05T20:18:40;1000.6;;;22.2;100
45789;BME280;31492;54.856;26.318;2022-08-05T20:23:40;1000.6;;;22.2;100
45789;BME280;31492;54.856;26.318;2022-08-05T20:28:40;1000.5;;;22.1;100
45789;BME280;31492;54.856;26.318;2022-08-05T20:33:40;1000.5;;;22.1;100
45789;BME280;31492;54.856;26.318;2022-08-05T20:38:40;1000.4;;;21.9;100
45789;BME280;31492;54.856;26.318;2022-08-05T20:43:40;1000.4;;;21.9;100
45789;BME280;31492;54.856;26.318;2022-08-05T20:48:40;1000.4;;;21.8;100
45789;BME280;31492;54.856;26.318;2022-08-05T20:53:40;1000.3;;;21.8;100
45789;BME280;31492;54.856;26.318;2022-08-05T20:58:40;1000.3;;;21.7;100
45789;BME280;31492;54.856;26.318;2022-08-05T21:03:40;1000.3;;;21.7;100
45789;BME280;31492;54.856;26.318;2022-08-05T21:08:40;1000.3;;;21.6;100
45789;BME280;31492;54.856;26.318;2022-08-05T21:13:40;1000.3;;;21.6;100
45789;BME280;31492;54.856;26.318;2022-08-05T21:18:40;1000.3;;;21.6;100
45789;BME280;31492;54.856;26.318;2022-08-05T21:23:40;1000.3;;;21.5;100
45789;BME280;31492;54.856;26.318;2022-08-05T21:28:40;1000.3;;;21.5;100
45789;BME280;31492;54.856;26.318;2022-08-05T21:33:40;1000.3;;;21.5;100
45789;BME280;31492;54.856;26.318;2022-08-05T21:38:40;1000.3;;;21.5;100
45789;BME280;31492;54.856;26.318;2022-08-05T21:43:40;1000.3;;;21.4;100
45789;BME280;31492;54.856;26.318;2022-08-05T21:48:40;1000.2;;;21.4;100
45789;BME280;31492;54.856;26.318;2022-08-05T21:53:40;1000.2;;;21.3;100
45789;BME280;31492;54.856;26.318;2022-08-05T21:58:40;1000.2;;;21.1;100
45789;BME280;31492;54.856;26.318;2022-08-05T22:03:40;1000.2;;;21;100
45789;BME280;31492;54.856;26.318;2022-08-05T22:08:40;1000.2;;;21.1;100
45789;BME280;31492;54.856;26.318;2022-08-05T22:13:40;1000.2;;;21.1;100
45789;BME280;31492;54.856;26.318;2022-08-05T22:18:40;1000.2;;;21;100
45789;BME280;31492;54.856;26.318;2022-08-05T22:23:40;1000.2;;;21;100
45789;BME280;31492;54.856;26.318;2022-08-05T22:28:40;1000.2;;;20.9;100
45789;BME280;31492;54.856;26.318;2022-08-05T22:33:40;1000.2;;;20.9;100
45789;BME280;31492;54.856;26.318;2022-08-05T22:38:41;1000.2;;;20.9;100
45789;BME280;31492;54.856;26.318;2022-08-05T22:43:40;1000.2;;;20.9;100
45789;BME280;31492;54.856;26.318;2022-08-05T22:48:40;1000.2;;;20.9;100
45789;BME280;31492;54.856;26.318;2022-08-05T22:53:40;1000.2;;;20.9;100
45789;BME280;31492;54.856;26.318;2022-08-05T22:58:40;1000.2;;;20.9;100
45789;BME280;31492;54.856;26.318;2022-08-05T23:03:40;1000.2;;;20.9;100
45789;BME280;31492;54.856;26.318;2022-08-05T23:08:40;1000.2;;;20.9;100
45789;BME280;31492;54.856;26.318;2022-08-05T23:13:40;1000.2;;;20.9;100
45789;BME280;31492;54.856;26.318;2022-08-05T23:18:40;1000.2;;;20.9;100
45789;BME280;31492;54.856;26.318;2022-08-05T23:23:40;1000.2;;;20.9;100
45789;BME280;31492;54.856;26.318;2022-08-05T23:28:40;1000.2;;;20.9;100
45789;BME280;31492;54.856;26.318;2022-08-05T23:33:40;1000.2;;;20.9;100
45789;BME280;31492;54.856;26.318;2022-08-05T23:38:40;1000.2;;;20.9;100
45789;BME280;31492;54.856;26.318;2022-08-05T23:43:40;1000.2;;;20.9;100
45789;BME280;31492;54.856;26.318;2022-08-05T23:48:40;1000.2;;;20.9;100
45789;BME280;31492;54.856;26.318;2022-08-05T23:53:40;1000.2;;;20.9;100
45789;BME280;31492;54.856;26.318;2022-08-05T23:58:40;1000.2;;;20.9;100
